sensor_id;sensor_type;location;lat;lon;timestamp;P1;durP1;ratioP1;P2;durP2;ratioP2
11315;SDS011;5713;50.774;0.256;2022-09-30T00:01:18;2.58;;;2.03;;
11315;SDS011;5713;50.774;0.256;2022-09-30T00:03:44;2.22;;;1.73;;
11315;SDS011;5713;50.774;0.256;2022-09-30T00:06:12;1.80;;;1.70;;
11315;SDS011;5713;50.774;0.256;2022-09-30T00:08:38;2.97;;;1.90;;
11315;SDS011;5713;50.774;0.256;2022-09-30T00:11:09;1.77;;;1.67;;
11315;SDS011;5713;50.774;0.256;2022-09-30T00:13:37;1.70;;;1.60;;
11315;SDS011;5713;50.774;0.256;2022-09-30T00:16:04;1.77;;;1.67;;
11315;SDS011;5713;50.774;0.256;2022-09-30T00:18:31;1.73;;;1.63;;
11315;SDS011;5713;50.774;0.256;2022-09-30T00:20:57;2.35;;;1.60;;
11315;SDS011;5713;50.774;0.256;2022-09-30T00:23:24;1.70;;;1.50;;
11315;SDS011;5713;50.774;0.256;2022-09-30T00:25:50;1.48;;;1.35;;
11315;SDS011;5713;50.774;0.256;2022-09-30T00:28:22;1.55;;;1.45;;
11315;SDS011;5713;50.774;0.256;2022-09-30T00:30:48;1.50;;;1.40;;
11315;SDS011;5713;50.774;0.256;2022-09-30T00:33:14;1.50;;;1.40;;
11315;SDS011;5713;50.774;0.256;2022-09-30T00:35:40;2.65;;;1.63;;
11315;SDS011;5713;50.774;0.256;2022-09-30T00:38:06;1.70;;;1.60;;
11315;SDS011;5713;50.774;0.256;2022-09-30T00:40:32;1.40;;;1.30;;
11315;SDS011;5713;50.774;0.256;2022-09-30T00:42:58;1.40;;;1.30;;
11315;SDS011;5713;50.774;0.256;2022-09-30T00:45:25;1.42;;;1.33;;
11315;SDS011;5713;50.774;0.256;2022-09-30T00:47:52;1.55;;;1.45;;
11315;SDS011;5713;50.774;0.256;2022-09-30T00:58:22;1.30;;;1.20;;
11315;SDS011;5713;50.774;0.256;2022-09-30T01:00:50;1.30;;;1.20;;
11315;SDS011;5713;50.774;0.256;2022-09-30T01:03:16;1.30;;;1.20;;
11315;SDS011;5713;50.774;0.256;2022-09-30T01:05:42;1.30;;;1.20;;
11315;SDS011;5713;50.774;0.256;2022-09-30T01:08:08;1.25;;;1.20;;
11315;SDS011;5713;50.774;0.256;2022-09-30T01:10:35;1.17;;;1.08;;
11315;SDS011;5713;50.774;0.256;2022-09-30T01:13:02;1.27;;;1.17;;
11315;SDS011;5713;50.774;0.256;2022-09-30T01:15:38;2.33;;;1.23;;
11315;SDS011;5713;50.774;0.256;2022-09-30T01:18:17;1.48;;;0.90;;
11315;SDS011;5713;50.774;0.256;2022-09-30T01:41:47;1.30;;;1.20;;
11315;SDS011;5713;50.774;0.256;2022-09-30T01:46:53;1.30;;;1.20;;
11315;SDS011;5713;50.774;0.256;2022-09-30T01:52:12;1.05;;;1.00;;
11315;SDS011;5713;50.774;0.256;2022-09-30T01:54:47;1.42;;;1.23;;
11315;SDS011;5713;50.774;0.256;2022-09-30T01:57:23;1.20;;;1.10;;
11315;SDS011;5713;50.774;0.256;2022-09-30T02:00:03;1.10;;;1.10;;
11315;SDS011;5713;50.774;0.256;2022-09-30T02:02:35;1.63;;;1.30;;
11315;SDS011;5713;50.774;0.256;2022-09-30T02:05:14;1.20;;;1.00;;
11315;SDS011;5713;50.774;0.256;2022-09-30T02:07:42;0.95;;;0.93;;
11315;SDS011;5713;50.774;0.256;2022-09-30T02:10:16;1.13;;;1.03;;
11315;SDS011;5713;50.774;0.256;2022-09-30T02:12:49;1.20;;;1.10;;
11315;SDS011;5713;50.774;0.256;2022-09-30T02:15:18;1.40;;;1.30;;
11315;SDS011;5713;50.774;0.256;2022-09-30T02:17:48;1.35;;;1.20;;
11315;SDS011;5713;50.774;0.256;2022-09-30T02:20:17;1.50;;;1.30;;
11315;SDS011;5713;50.774;0.256;2022-09-30T02:22:45;1.05;;;0.93;;
11315;SDS011;5713;50.774;0.256;2022-09-30T02:25:25;1.23;;;1.13;;
11315;SDS011;5713;50.774;0.256;2022-09-30T02:27:53;1.30;;;1.20;;
11315;SDS011;5713;50.774;0.256;2022-09-30T02:30:20;1.40;;;1.30;;
11315;SDS011;5713;50.774;0.256;2022-09-30T02:32:55;1.23;;;1.13;;
11315;SDS011;5713;50.774;0.256;2022-09-30T02:35:26;1.25;;;1.15;;
11315;SDS011;5713;50.774;0.256;2022-09-30T02:38:04;1.20;;;1.10;;
11315;SDS011;5713;50.774;0.256;2022-09-30T02:40:43;1.45;;;1.35;;
11315;SDS011;5713;50.774;0.256;2022-09-30T02:43:12;1.40;;;1.30;;
11315;SDS011;5713;50.774;0.256;2022-09-30T02:48:24;1.23;;;1.13;;
11315;SDS011;5713;50.774;0.256;2022-09-30T02:50:53;0.90;;;0.90;;
11315;SDS011;5713;50.774;0.256;2022-09-30T02:53:39;1.37;;;1.17;;
11315;SDS011;5713;50.774;0.256;2022-09-30T02:58:37;1.58;;;1.48;;
11315;SDS011;5713;50.774;0.256;2022-09-30T03:01:06;1.40;;;1.30;;
11315;SDS011;5713;50.774;0.256;2022-09-30T03:03:33;1.40;;;1.30;;
11315;SDS011;5713;50.774;0.256;2022-09-30T03:06:02;1.30;;;1.20;;
11315;SDS011;5713;50.774;0.256;2022-09-30T03:08:29;1.33;;;1.23;;
11315;SDS011;5713;50.774;0.256;2022-09-30T03:10:55;1.10;;;1.10;;
11315;SDS011;5713;50.774;0.256;2022-09-30T03:26:20;1.40;;;1.30;;
11315;SDS011;5713;50.774;0.256;2022-09-30T03:28:51;1.27;;;1.17;;
11315;SDS011;5713;50.774;0.256;2022-09-30T03:33:54;1.27;;;1.17;;
11315;SDS011;5713;50.774;0.256;2022-09-30T03:36:27;1.23;;;1.10;;
11315;SDS011;5713;50.774;0.256;2022-09-30T03:41:46;1.20;;;1.10;;
11315;SDS011;5713;50.774;0.256;2022-09-30T03:44:19;1.20;;;1.10;;
11315;SDS011;5713;50.774;0.256;2022-09-30T03:46:52;1.17;;;1.10;;
11315;SDS011;5713;50.774;0.256;2022-09-30T03:49:23;1.98;;;1.10;;
11315;SDS011;5713;50.774;0.256;2022-09-30T03:51:52;1.20;;;1.10;;
11315;SDS011;5713;50.774;0.256;2022-09-30T03:54:19;1.30;;;1.20;;
11315;SDS011;5713;50.774;0.256;2022-09-30T03:56:45;1.20;;;1.10;;
11315;SDS011;5713;50.774;0.256;2022-09-30T03:59:15;1.15;;;1.10;;
11315;SDS011;5713;50.774;0.256;2022-09-30T04:01:42;1.20;;;1.10;;
11315;SDS011;5713;50.774;0.256;2022-09-30T04:04:08;1.30;;;1.10;;
11315;SDS011;5713;50.774;0.256;2022-09-30T04:06:34;0.80;;;0.80;;
11315;SDS011;5713;50.774;0.256;2022-09-30T04:09:00;1.23;;;1.00;;
11315;SDS011;5713;50.774;0.256;2022-09-30T04:11:26;1.17;;;1.17;;
11315;SDS011;5713;50.774;0.256;2022-09-30T04:13:52;1.60;;;1.10;;
11315;SDS011;5713;50.774;0.256;2022-09-30T04:16:18;1.05;;;1.02;;
11315;SDS011;5713;50.774;0.256;2022-09-30T04:18:44;1.05;;;1.00;;
11315;SDS011;5713;50.774;0.256;2022-09-30T04:21:11;1.27;;;1.17;;
11315;SDS011;5713;50.774;0.256;2022-09-30T04:23:38;1.90;;;1.30;;
11315;SDS011;5713;50.774;0.256;2022-09-30T04:26:05;1.50;;;1.40;;
11315;SDS011;5713;50.774;0.256;2022-09-30T04:28:32;1.50;;;1.40;;
11315;SDS011;5713;50.774;0.256;2022-09-30T04:30:59;1.40;;;1.30;;
11315;SDS011;5713;50.774;0.256;2022-09-30T04:33:25;1.77;;;1.60;;
11315;SDS011;5713;50.774;0.256;2022-09-30T04:35:52;2.08;;;1.60;;
11315;SDS011;5713;50.774;0.256;2022-09-30T04:38:18;1.73;;;1.60;;
11315;SDS011;5713;50.774;0.256;2022-09-30T04:40:44;2.17;;;1.50;;
11315;SDS011;5713;50.774;0.256;2022-09-30T04:43:10;2.63;;;1.70;;
11315;SDS011;5713;50.774;0.256;2022-09-30T04:45:36;2.15;;;1.70;;
11315;SDS011;5713;50.774;0.256;2022-09-30T04:48:08;1.93;;;1.60;;
11315;SDS011;5713;50.774;0.256;2022-09-30T04:50:34;2.53;;;2.00;;
11315;SDS011;5713;50.774;0.256;2022-09-30T04:53:00;2.72;;;2.10;;
11315;SDS011;5713;50.774;0.256;2022-09-30T04:55:27;2.33;;;2.10;;
11315;SDS011;5713;50.774;0.256;2022-09-30T04:57:54;3.15;;;2.00;;
11315;SDS011;5713;50.774;0.256;2022-09-30T05:00:20;2.95;;;2.00;;
11315;SDS011;5713;50.774;0.256;2022-09-30T05:02:46;3.53;;;2.10;;
11315;SDS011;5713;50.774;0.256;2022-09-30T05:05:12;3.75;;;2.33;;
11315;SDS011;5713;50.774;0.256;2022-09-30T05:07:39;3.20;;;2.33;;
11315;SDS011;5713;50.774;0.256;2022-09-30T05:10:05;3.40;;;2.50;;
11315;SDS011;5713;50.774;0.256;2022-09-30T05:12:32;4.15;;;2.22;;
11315;SDS011;5713;50.774;0.256;2022-09-30T05:14:58;3.92;;;2.60;;
11315;SDS011;5713;50.774;0.256;2022-09-30T05:17:24;3.72;;;2.40;;
11315;SDS011;5713;50.774;0.256;2022-09-30T05:19:51;3.22;;;2.30;;
11315;SDS011;5713;50.774;0.256;2022-09-30T05:22:17;2.90;;;2.40;;
11315;SDS011;5713;50.774;0.256;2022-09-30T05:24:43;3.15;;;2.20;;
11315;SDS011;5713;50.774;0.256;2022-09-30T05:27:09;3.78;;;2.50;;
11315;SDS011;5713;50.774;0.256;2022-09-30T05:29:36;3.55;;;2.33;;
11315;SDS011;5713;50.774;0.256;2022-09-30T05:32:02;3.30;;;2.50;;
11315;SDS011;5713;50.774;0.256;2022-09-30T05:34:28;2.70;;;2.30;;
11315;SDS011;5713;50.774;0.256;2022-09-30T05:36:55;3.72;;;2.70;;
11315;SDS011;5713;50.774;0.256;2022-09-30T05:39:21;4.03;;;2.50;;
11315;SDS011;5713;50.774;0.256;2022-09-30T05:41:47;3.80;;;2.47;;
11315;SDS011;5713;50.774;0.256;2022-09-30T05:44:13;3.67;;;2.45;;
11315;SDS011;5713;50.774;0.256;2022-09-30T05:46:39;3.23;;;2.50;;
11315;SDS011;5713;50.774;0.256;2022-09-30T05:49:05;4.85;;;2.70;;
11315;SDS011;5713;50.774;0.256;2022-09-30T05:51:31;4.28;;;2.72;;
11315;SDS011;5713;50.774;0.256;2022-09-30T05:53:57;4.20;;;2.70;;
11315;SDS011;5713;50.774;0.256;2022-09-30T05:56:23;3.20;;;2.47;;
11315;SDS011;5713;50.774;0.256;2022-09-30T05:58:50;4.82;;;2.95;;
11315;SDS011;5713;50.774;0.256;2022-09-30T06:01:16;4.95;;;3.10;;
11315;SDS011;5713;50.774;0.256;2022-09-30T06:03:42;4.90;;;3.00;;
11315;SDS011;5713;50.774;0.256;2022-09-30T06:06:09;4.35;;;2.83;;
11315;SDS011;5713;50.774;0.256;2022-09-30T06:08:35;4.25;;;2.70;;
11315;SDS011;5713;50.774;0.256;2022-09-30T06:11:06;5.03;;;3.17;;
11315;SDS011;5713;50.774;0.256;2022-09-30T06:13:36;5.03;;;3.17;;
11315;SDS011;5713;50.774;0.256;2022-09-30T06:16:02;5.13;;;3.10;;
11315;SDS011;5713;50.774;0.256;2022-09-30T06:18:29;5.22;;;3.10;;
11315;SDS011;5713;50.774;0.256;2022-09-30T06:20:59;3.65;;;2.70;;
11315;SDS011;5713;50.774;0.256;2022-09-30T06:23:26;4.15;;;3.00;;
11315;SDS011;5713;50.774;0.256;2022-09-30T06:25:52;4.00;;;2.92;;
11315;SDS011;5713;50.774;0.256;2022-09-30T06:28:19;3.15;;;2.45;;
11315;SDS011;5713;50.774;0.256;2022-09-30T06:30:45;3.30;;;2.65;;
11315;SDS011;5713;50.774;0.256;2022-09-30T06:33:12;3.63;;;2.75;;
11315;SDS011;5713;50.774;0.256;2022-09-30T06:35:39;3.70;;;2.50;;
11315;SDS011;5713;50.774;0.256;2022-09-30T06:38:08;2.63;;;2.42;;
11315;SDS011;5713;50.774;0.256;2022-09-30T06:40:35;3.00;;;2.50;;
11315;SDS011;5713;50.774;0.256;2022-09-30T06:43:01;2.97;;;2.40;;
11315;SDS011;5713;50.774;0.256;2022-09-30T06:45:28;2.85;;;2.40;;
11315;SDS011;5713;50.774;0.256;2022-09-30T06:47:57;2.90;;;2.50;;
11315;SDS011;5713;50.774;0.256;2022-09-30T06:50:23;2.50;;;2.30;;
11315;SDS011;5713;50.774;0.256;2022-09-30T06:52:49;2.58;;;2.38;;
11315;SDS011;5713;50.774;0.256;2022-09-30T06:55:16;2.70;;;2.50;;
11315;SDS011;5713;50.774;0.256;2022-09-30T06:57:43;2.80;;;2.40;;
11315;SDS011;5713;50.774;0.256;2022-09-30T07:00:12;2.50;;;2.30;;
11315;SDS011;5713;50.774;0.256;2022-09-30T07:02:39;2.53;;;2.20;;
11315;SDS011;5713;50.774;0.256;2022-09-30T07:05:05;2.58;;;2.38;;
11315;SDS011;5713;50.774;0.256;2022-09-30T07:07:32;2.42;;;2.15;;
11315;SDS011;5713;50.774;0.256;2022-09-30T07:09:59;2.40;;;2.20;;
11315;SDS011;5713;50.774;0.256;2022-09-30T07:12:25;2.50;;;2.30;;
11315;SDS011;5713;50.774;0.256;2022-09-30T07:14:52;2.40;;;2.20;;
11315;SDS011;5713;50.774;0.256;2022-09-30T07:17:18;2.60;;;2.40;;
11315;SDS011;5713;50.774;0.256;2022-09-30T07:19:45;2.28;;;2.08;;
11315;SDS011;5713;50.774;0.256;2022-09-30T07:22:11;2.30;;;2.10;;
11315;SDS011;5713;50.774;0.256;2022-09-30T07:24:56;2.42;;;2.20;;
11315;SDS011;5713;50.774;0.256;2022-09-30T07:27:23;2.50;;;2.30;;
11315;SDS011;5713;50.774;0.256;2022-09-30T07:29:50;3.00;;;2.10;;
11315;SDS011;5713;50.774;0.256;2022-09-30T07:32:16;4.68;;;2.60;;
11315;SDS011;5713;50.774;0.256;2022-09-30T07:34:44;4.95;;;2.40;;
11315;SDS011;5713;50.774;0.256;2022-09-30T07:37:11;7.10;;;2.45;;
11315;SDS011;5713;50.774;0.256;2022-09-30T07:39:38;6.60;;;2.80;;
11315;SDS011;5713;50.774;0.256;2022-09-30T07:42:04;7.45;;;2.90;;
11315;SDS011;5713;50.774;0.256;2022-09-30T07:44:31;5.53;;;2.90;;
11315;SDS011;5713;50.774;0.256;2022-09-30T07:46:57;8.40;;;2.92;;
11315;SDS011;5713;50.774;0.256;2022-09-30T07:49:23;6.75;;;3.10;;
11315;SDS011;5713;50.774;0.256;2022-09-30T07:51:59;5.13;;;2.88;;
11315;SDS011;5713;50.774;0.256;2022-09-30T07:54:26;3.85;;;2.75;;
11315;SDS011;5713;50.774;0.256;2022-09-30T07:56:53;4.45;;;2.88;;
11315;SDS011;5713;50.774;0.256;2022-09-30T07:59:19;4.07;;;2.65;;
11315;SDS011;5713;50.774;0.256;2022-09-30T08:01:46;3.63;;;2.80;;
11315;SDS011;5713;50.774;0.256;2022-09-30T08:04:13;7.67;;;3.00;;
11315;SDS011;5713;50.774;0.256;2022-09-30T08:06:40;8.63;;;3.20;;
11315;SDS011;5713;50.774;0.256;2022-09-30T08:09:07;8.32;;;3.00;;
11315;SDS011;5713;50.774;0.256;2022-09-30T08:11:34;5.38;;;2.90;;
11315;SDS011;5713;50.774;0.256;2022-09-30T08:14:01;6.88;;;2.88;;
11315;SDS011;5713;50.774;0.256;2022-09-30T08:16:27;4.75;;;2.90;;
11315;SDS011;5713;50.774;0.256;2022-09-30T08:18:54;8.27;;;3.00;;
11315;SDS011;5713;50.774;0.256;2022-09-30T08:21:20;18.70;;;4.70;;
11315;SDS011;5713;50.774;0.256;2022-09-30T08:23:46;10.77;;;4.00;;
11315;SDS011;5713;50.774;0.256;2022-09-30T08:26:12;9.45;;;3.30;;
11315;SDS011;5713;50.774;0.256;2022-09-30T08:28:40;7.13;;;3.22;;
11315;SDS011;5713;50.774;0.256;2022-09-30T08:31:07;5.97;;;2.92;;
11315;SDS011;5713;50.774;0.256;2022-09-30T08:33:33;5.10;;;3.00;;
11315;SDS011;5713;50.774;0.256;2022-09-30T08:36:00;5.45;;;3.00;;
11315;SDS011;5713;50.774;0.256;2022-09-30T08:38:26;4.72;;;3.03;;
11315;SDS011;5713;50.774;0.256;2022-09-30T08:40:56;5.73;;;3.00;;
11315;SDS011;5713;50.774;0.256;2022-09-30T08:43:30;6.07;;;3.03;;
11315;SDS011;5713;50.774;0.256;2022-09-30T08:53:22;7.80;;;3.20;;
11315;SDS011;5713;50.774;0.256;2022-09-30T08:55:50;5.50;;;2.70;;
11315;SDS011;5713;50.774;0.256;2022-09-30T08:58:27;4.75;;;2.80;;
11315;SDS011;5713;50.774;0.256;2022-09-30T09:00:55;5.43;;;2.60;;
11315;SDS011;5713;50.774;0.256;2022-09-30T09:03:25;4.40;;;3.00;;
11315;SDS011;5713;50.774;0.256;2022-09-30T09:06:02;4.40;;;2.78;;
11315;SDS011;5713;50.774;0.256;2022-09-30T09:11:06;4.70;;;2.80;;
11315;SDS011;5713;50.774;0.256;2022-09-30T09:13:43;7.28;;;2.70;;
11315;SDS011;5713;50.774;0.256;2022-09-30T09:24:15;9.10;;;3.85;;
11315;SDS011;5713;50.774;0.256;2022-09-30T09:26:43;10.07;;;3.80;;
11315;SDS011;5713;50.774;0.256;2022-09-30T09:29:26;8.30;;;4.00;;
11315;SDS011;5713;50.774;0.256;2022-09-30T09:31:55;8.83;;;3.87;;
11315;SDS011;5713;50.774;0.256;2022-09-30T09:34:23;20.55;;;5.13;;
11315;SDS011;5713;50.774;0.256;2022-09-30T09:47:01;13.85;;;4.20;;
11315;SDS011;5713;50.774;0.256;2022-09-30T09:49:32;8.70;;;4.03;;
11315;SDS011;5713;50.774;0.256;2022-09-30T09:57:07;10.82;;;4.45;;
11315;SDS011;5713;50.774;0.256;2022-09-30T09:59:33;8.23;;;4.20;;
11315;SDS011;5713;50.774;0.256;2022-09-30T10:02:00;9.45;;;4.20;;
11315;SDS011;5713;50.774;0.256;2022-09-30T10:04:27;7.07;;;4.00;;
11315;SDS011;5713;50.774;0.256;2022-09-30T10:06:55;7.97;;;4.25;;
11315;SDS011;5713;50.774;0.256;2022-09-30T10:14:37;6.88;;;4.07;;
11315;SDS011;5713;50.774;0.256;2022-09-30T10:17:19;6.13;;;3.90;;
11315;SDS011;5713;50.774;0.256;2022-09-30T10:19:48;8.90;;;4.15;;
11315;SDS011;5713;50.774;0.256;2022-09-30T10:24:41;8.75;;;4.10;;
11315;SDS011;5713;50.774;0.256;2022-09-30T10:27:27;5.93;;;3.90;;
11315;SDS011;5713;50.774;0.256;2022-09-30T10:29:53;5.25;;;3.35;;
11315;SDS011;5713;50.774;0.256;2022-09-30T10:32:19;5.32;;;3.58;;
11315;SDS011;5713;50.774;0.256;2022-09-30T10:34:47;5.03;;;3.58;;
11315;SDS011;5713;50.774;0.256;2022-09-30T10:37:22;6.82;;;3.08;;
11315;SDS011;5713;50.774;0.256;2022-09-30T10:39:59;4.90;;;2.90;;
11315;SDS011;5713;50.774;0.256;2022-09-30T10:42:27;5.60;;;2.88;;
11315;SDS011;5713;50.774;0.256;2022-09-30T10:45:05;4.07;;;2.80;;
11315;SDS011;5713;50.774;0.256;2022-09-30T10:47:34;3.70;;;2.70;;
11315;SDS011;5713;50.774;0.256;2022-09-30T10:50:02;2.80;;;2.60;;
11315;SDS011;5713;50.774;0.256;2022-09-30T10:52:30;3.05;;;2.85;;
11315;SDS011;5713;50.774;0.256;2022-09-30T10:54:57;2.65;;;2.40;;
11315;SDS011;5713;50.774;0.256;2022-09-30T11:00:04;7.97;;;3.60;;
11315;SDS011;5713;50.774;0.256;2022-09-30T11:02:35;8.25;;;3.80;;
11315;SDS011;5713;50.774;0.256;2022-09-30T11:05:10;9.20;;;4.03;;
11315;SDS011;5713;50.774;0.256;2022-09-30T11:12:54;13.13;;;3.63;;
11315;SDS011;5713;50.774;0.256;2022-09-30T11:15:28;8.50;;;3.50;;
11315;SDS011;5713;50.774;0.256;2022-09-30T11:18:00;8.18;;;3.67;;
11315;SDS011;5713;50.774;0.256;2022-09-30T11:20:28;7.80;;;3.28;;
11315;SDS011;5713;50.774;0.256;2022-09-30T11:25:46;6.38;;;3.08;;
11315;SDS011;5713;50.774;0.256;2022-09-30T11:33:38;5.45;;;2.92;;
11315;SDS011;5713;50.774;0.256;2022-09-30T11:41:13;5.32;;;2.88;;
11315;SDS011;5713;50.774;0.256;2022-09-30T11:43:54;5.10;;;2.90;;
11315;SDS011;5713;50.774;0.256;2022-09-30T11:58:59;4.00;;;2.78;;
11315;SDS011;5713;50.774;0.256;2022-09-30T12:01:27;6.15;;;3.28;;
11315;SDS011;5713;50.774;0.256;2022-09-30T12:04:05;10.98;;;3.80;;
11315;SDS011;5713;50.774;0.256;2022-09-30T12:06:34;9.05;;;3.97;;
11315;SDS011;5713;50.774;0.256;2022-09-30T12:09:03;7.78;;;3.72;;
11315;SDS011;5713;50.774;0.256;2022-09-30T12:11:33;8.82;;;3.58;;
11315;SDS011;5713;50.774;0.256;2022-09-30T12:14:03;9.18;;;3.50;;
11315;SDS011;5713;50.774;0.256;2022-09-30T12:16:30;6.55;;;3.25;;
11315;SDS011;5713;50.774;0.256;2022-09-30T12:19:18;5.80;;;3.42;;
11315;SDS011;5713;50.774;0.256;2022-09-30T12:21:49;5.00;;;3.30;;
11315;SDS011;5713;50.774;0.256;2022-09-30T12:26:52;6.65;;;3.35;;
11315;SDS011;5713;50.774;0.256;2022-09-30T12:29:23;5.07;;;3.42;;
11315;SDS011;5713;50.774;0.256;2022-09-30T12:32:17;5.47;;;3.05;;
11315;SDS011;5713;50.774;0.256;2022-09-30T12:35:11;7.53;;;3.30;;
11315;SDS011;5713;50.774;0.256;2022-09-30T12:48:31;6.72;;;3.30;;
11315;SDS011;5713;50.774;0.256;2022-09-30T12:50:58;5.68;;;3.40;;
11315;SDS011;5713;50.774;0.256;2022-09-30T12:55:51;4.55;;;3.17;;
11315;SDS011;5713;50.774;0.256;2022-09-30T12:58:22;4.03;;;2.95;;
11315;SDS011;5713;50.774;0.256;2022-09-30T13:00:57;5.78;;;3.10;;
11315;SDS011;5713;50.774;0.256;2022-09-30T13:03:24;3.40;;;3.10;;
11315;SDS011;5713;50.774;0.256;2022-09-30T13:06:13;3.70;;;2.80;;
11315;SDS011;5713;50.774;0.256;2022-09-30T13:08:44;4.30;;;3.38;;
11315;SDS011;5713;50.774;0.256;2022-09-30T13:11:28;4.00;;;2.83;;
11315;SDS011;5713;50.774;0.256;2022-09-30T13:14:10;3.53;;;2.90;;
11315;SDS011;5713;50.774;0.256;2022-09-30T13:19:22;9.20;;;3.90;;
11315;SDS011;5713;50.774;0.256;2022-09-30T13:27:35;8.95;;;3.67;;
11315;SDS011;5713;50.774;0.256;2022-09-30T13:30:29;7.35;;;3.58;;
11315;SDS011;5713;50.774;0.256;2022-09-30T13:43:09;8.30;;;3.63;;
11315;SDS011;5713;50.774;0.256;2022-09-30T13:45:38;9.87;;;3.93;;
11315;SDS011;5713;50.774;0.256;2022-09-30T13:50:36;10.80;;;3.90;;
11315;SDS011;5713;50.774;0.256;2022-09-30T13:53:05;10.90;;;4.22;;
11315;SDS011;5713;50.774;0.256;2022-09-30T13:55:37;9.50;;;4.03;;
11315;SDS011;5713;50.774;0.256;2022-09-30T13:58:29;11.05;;;4.10;;
11315;SDS011;5713;50.774;0.256;2022-09-30T14:06:20;6.25;;;3.53;;
11315;SDS011;5713;50.774;0.256;2022-09-30T14:14:07;8.35;;;3.80;;
11315;SDS011;5713;50.774;0.256;2022-09-30T14:22:02;6.88;;;4.03;;
11315;SDS011;5713;50.774;0.256;2022-09-30T14:24:32;7.97;;;4.00;;
11315;SDS011;5713;50.774;0.256;2022-09-30T14:32:00;6.50;;;3.40;;
11315;SDS011;5713;50.774;0.256;2022-09-30T14:34:35;4.78;;;3.33;;
11315;SDS011;5713;50.774;0.256;2022-09-30T14:37:01;3.53;;;3.00;;
11315;SDS011;5713;50.774;0.256;2022-09-30T14:39:28;4.25;;;3.17;;
11315;SDS011;5713;50.774;0.256;2022-09-30T14:41:57;3.80;;;2.88;;
11315;SDS011;5713;50.774;0.256;2022-09-30T14:44:26;3.72;;;3.00;;
11315;SDS011;5713;50.774;0.256;2022-09-30T14:46:53;3.45;;;2.83;;
11315;SDS011;5713;50.774;0.256;2022-09-30T14:49:25;4.20;;;2.90;;
11315;SDS011;5713;50.774;0.256;2022-09-30T14:51:56;3.93;;;2.97;;
11315;SDS011;5713;50.774;0.256;2022-09-30T14:54:25;3.70;;;2.90;;
11315;SDS011;5713;50.774;0.256;2022-09-30T14:56:53;3.33;;;3.03;;
11315;SDS011;5713;50.774;0.256;2022-09-30T14:59:20;5.20;;;3.30;;
11315;SDS011;5713;50.774;0.256;2022-09-30T15:01:49;5.03;;;3.25;;
11315;SDS011;5713;50.774;0.256;2022-09-30T15:04:17;4.28;;;3.28;;
11315;SDS011;5713;50.774;0.256;2022-09-30T15:06:45;3.75;;;3.15;;
11315;SDS011;5713;50.774;0.256;2022-09-30T15:11:41;4.32;;;3.10;;
11315;SDS011;5713;50.774;0.256;2022-09-30T15:16:45;33.50;;;5.68;;
11315;SDS011;5713;50.774;0.256;2022-09-30T15:19:14;22.60;;;5.07;;
11315;SDS011;5713;50.774;0.256;2022-09-30T15:21:42;17.63;;;4.53;;
11315;SDS011;5713;50.774;0.256;2022-09-30T15:24:08;14.63;;;4.40;;
11315;SDS011;5713;50.774;0.256;2022-09-30T15:26:36;15.85;;;4.18;;
11315;SDS011;5713;50.774;0.256;2022-09-30T15:29:03;17.42;;;3.90;;
11315;SDS011;5713;50.774;0.256;2022-09-30T15:31:29;16.73;;;3.65;;
11315;SDS011;5713;50.774;0.256;2022-09-30T15:34:11;16.80;;;4.25;;
11315;SDS011;5713;50.774;0.256;2022-09-30T15:36:38;12.60;;;4.10;;
11315;SDS011;5713;50.774;0.256;2022-09-30T15:39:04;14.00;;;3.88;;
11315;SDS011;5713;50.774;0.256;2022-09-30T15:41:38;12.88;;;3.83;;
11315;SDS011;5713;50.774;0.256;2022-09-30T15:44:11;10.45;;;3.50;;
11315;SDS011;5713;50.774;0.256;2022-09-30T15:46:40;10.45;;;3.70;;
11315;SDS011;5713;50.774;0.256;2022-09-30T15:54:47;7.38;;;3.42;;
11315;SDS011;5713;50.774;0.256;2022-09-30T15:59:59;9.32;;;3.40;;
11315;SDS011;5713;50.774;0.256;2022-09-30T16:02:26;9.63;;;3.53;;
11315;SDS011;5713;50.774;0.256;2022-09-30T16:04:53;7.15;;;3.33;;
11315;SDS011;5713;50.774;0.256;2022-09-30T16:07:19;7.75;;;3.22;;
11315;SDS011;5713;50.774;0.256;2022-09-30T16:09:50;8.65;;;3.40;;
11315;SDS011;5713;50.774;0.256;2022-09-30T16:12:18;7.78;;;3.28;;
11315;SDS011;5713;50.774;0.256;2022-09-30T16:17:32;6.13;;;3.00;;
11315;SDS011;5713;50.774;0.256;2022-09-30T16:19:59;4.65;;;2.72;;
11315;SDS011;5713;50.774;0.256;2022-09-30T16:25:00;5.13;;;2.90;;
11315;SDS011;5713;50.774;0.256;2022-09-30T16:27:28;4.40;;;2.70;;
11315;SDS011;5713;50.774;0.256;2022-09-30T16:29:55;5.35;;;2.78;;
11315;SDS011;5713;50.774;0.256;2022-09-30T16:32:22;3.13;;;2.50;;
11315;SDS011;5713;50.774;0.256;2022-09-30T16:34:48;4.80;;;2.92;;
11315;SDS011;5713;50.774;0.256;2022-09-30T16:37:16;4.78;;;2.80;;
11315;SDS011;5713;50.774;0.256;2022-09-30T16:39:43;4.95;;;2.95;;
11315;SDS011;5713;50.774;0.256;2022-09-30T16:42:12;5.18;;;3.03;;
11315;SDS011;5713;50.774;0.256;2022-09-30T16:44:39;5.50;;;2.85;;
11315;SDS011;5713;50.774;0.256;2022-09-30T16:47:17;7.05;;;3.00;;
11315;SDS011;5713;50.774;0.256;2022-09-30T16:49:45;4.65;;;2.95;;
11315;SDS011;5713;50.774;0.256;2022-09-30T16:52:12;4.28;;;2.78;;
11315;SDS011;5713;50.774;0.256;2022-09-30T16:54:39;5.47;;;2.97;;
11315;SDS011;5713;50.774;0.256;2022-09-30T16:57:06;4.63;;;3.00;;
11315;SDS011;5713;50.774;0.256;2022-09-30T16:59:32;4.18;;;2.80;;
11315;SDS011;5713;50.774;0.256;2022-09-30T17:01:59;4.00;;;2.63;;
11315;SDS011;5713;50.774;0.256;2022-09-30T17:04:26;4.23;;;2.50;;
11315;SDS011;5713;50.774;0.256;2022-09-30T17:06:52;4.93;;;2.60;;
11315;SDS011;5713;50.774;0.256;2022-09-30T17:09:21;4.07;;;2.60;;
11315;SDS011;5713;50.774;0.256;2022-09-30T17:11:47;4.45;;;2.45;;
11315;SDS011;5713;50.774;0.256;2022-09-30T17:14:17;4.85;;;2.45;;
11315;SDS011;5713;50.774;0.256;2022-09-30T17:16:43;5.32;;;2.92;;
11315;SDS011;5713;50.774;0.256;2022-09-30T17:19:10;4.93;;;2.93;;
11315;SDS011;5713;50.774;0.256;2022-09-30T17:21:37;4.40;;;2.70;;
11315;SDS011;5713;50.774;0.256;2022-09-30T17:24:03;3.88;;;2.88;;
11315;SDS011;5713;50.774;0.256;2022-09-30T17:26:29;5.57;;;2.70;;
11315;SDS011;5713;50.774;0.256;2022-09-30T17:28:55;3.83;;;2.83;;
11315;SDS011;5713;50.774;0.256;2022-09-30T17:31:22;6.40;;;2.97;;
11315;SDS011;5713;50.774;0.256;2022-09-30T17:33:48;3.50;;;2.42;;
11315;SDS011;5713;50.774;0.256;2022-09-30T17:36:15;3.72;;;2.60;;
11315;SDS011;5713;50.774;0.256;2022-09-30T17:38:43;4.80;;;2.67;;
11315;SDS011;5713;50.774;0.256;2022-09-30T17:41:09;3.88;;;2.60;;
11315;SDS011;5713;50.774;0.256;2022-09-30T17:43:56;4.75;;;2.50;;
11315;SDS011;5713;50.774;0.256;2022-09-30T17:46:24;4.00;;;2.40;;
11315;SDS011;5713;50.774;0.256;2022-09-30T17:48:53;4.65;;;2.70;;
11315;SDS011;5713;50.774;0.256;2022-09-30T17:51:20;3.60;;;2.30;;
11315;SDS011;5713;50.774;0.256;2022-09-30T17:53:47;4.63;;;2.40;;
11315;SDS011;5713;50.774;0.256;2022-09-30T17:56:14;4.20;;;2.60;;
11315;SDS011;5713;50.774;0.256;2022-09-30T17:58:41;3.80;;;2.58;;
11315;SDS011;5713;50.774;0.256;2022-09-30T18:01:11;4.88;;;2.70;;
11315;SDS011;5713;50.774;0.256;2022-09-30T18:03:37;5.00;;;2.80;;
11315;SDS011;5713;50.774;0.256;2022-09-30T18:06:04;3.97;;;2.50;;
11315;SDS011;5713;50.774;0.256;2022-09-30T18:08:30;3.75;;;2.22;;
11315;SDS011;5713;50.774;0.256;2022-09-30T18:10:56;4.53;;;2.40;;
11315;SDS011;5713;50.774;0.256;2022-09-30T18:13:25;3.72;;;2.40;;
11315;SDS011;5713;50.774;0.256;2022-09-30T18:15:52;4.05;;;2.42;;
11315;SDS011;5713;50.774;0.256;2022-09-30T18:18:18;4.80;;;2.65;;
11315;SDS011;5713;50.774;0.256;2022-09-30T18:20:45;3.47;;;2.42;;
11315;SDS011;5713;50.774;0.256;2022-09-30T18:23:12;3.83;;;2.25;;
11315;SDS011;5713;50.774;0.256;2022-09-30T18:25:38;5.40;;;2.45;;
11315;SDS011;5713;50.774;0.256;2022-09-30T18:28:07;17.90;;;4.13;;
11315;SDS011;5713;50.774;0.256;2022-09-30T18:30:34;20.13;;;3.75;;
11315;SDS011;5713;50.774;0.256;2022-09-30T18:33:00;15.90;;;3.78;;
11315;SDS011;5713;50.774;0.256;2022-09-30T18:35:28;13.63;;;3.25;;
11315;SDS011;5713;50.774;0.256;2022-09-30T18:37:57;10.32;;;3.10;;
11315;SDS011;5713;50.774;0.256;2022-09-30T18:40:24;11.13;;;3.38;;